Time;durP1;ratioP1;P1;durP2;ratioP2;P2;SDS_P1;SDS_P2;PMS_P1;PMS_P2;Temp;Humidity;BMP_temperature;BMP_pressure;BME280_temperature;BME280_humidity;BME280_pressure;Samples;Min_cycle;Max_cycle;Signal;HPM_P1;HPM_P2
2021/12/25 00:01:54;;;;;;;0.70;0.30;;;23.80;34.90;;;;;;5046038;28;20033;-43
2021/12/25 00:04:20;;;;;;;1.13;0.57;;;23.80;34.90;;;;;;5027017;28;20101;-43
2021/12/25 00:06:46;;;;;;;1.40;0.50;;;23.80;34.90;;;;;;5006421;28;20415;-43
2021/12/25 00:09:12;;;;;;;0.93;0.50;;;23.80;34.90;;;;;;5006232;28;20030;-43
2021/12/25 00:11:38;;;;;;;1.48;0.80;;;23.80;34.90;;;;;;5005820;28;20025;-42
2021/12/25 00:14:10;;;;;;;0.63;0.32;;;23.80;34.90;;;;;;5004795;28;20125;-43
2021/12/25 00:16:36;;;;;;;1.23;0.40;;;23.80;34.90;;;;;;5004878;28;20030;-43
2021/12/25 00:19:02;;;;;;;1.40;0.50;;;23.80;34.90;;;;;;5005959;28;20036;-43
2021/12/25 00:21:28;;;;;;;0.88;0.40;;;23.80;34.90;;;;;;5005831;28;20038;-42
2021/12/25 00:23:54;;;;;;;1.60;0.52;;;23.80;34.90;;;;;;5005179;28;20091;-43
2021/12/25 00:34:46;;;;;;;0.77;0.40;;;23.70;34.90;;;;;;5010353;28;20042;-43
2021/12/25 00:37:12;;;;;;;1.20;0.40;;;23.70;34.90;;;;;;5005770;28;20030;-43
2021/12/25 00:39:38;;;;;;;0.85;0.35;;;23.70;35.00;;;;;;5005738;28;20037;-42
2021/12/25 00:42:06;;;;;;;0.93;0.40;;;23.70;34.90;;;;;;5005180;28;20045;-43
2021/12/25 00:44:33;;;;;;;1.23;0.50;;;23.70;35.00;;;;;;5016794;28;20034;-43
2021/12/25 00:46:59;;;;;;;0.98;0.50;;;23.60;34.90;;;;;;5005470;28;20049;-43
2021/12/25 00:49:26;;;;;;;0.45;0.30;;;23.70;35.00;;;;;;5006953;28;20065;-42
2021/12/25 00:51:52;;;;;;;0.85;0.40;;;23.60;35.00;;;;;;5043352;28;20032;-43
2021/12/25 00:54:17;;;;;;;0.80;0.40;;;23.60;35.00;;;;;;5043278;28;20080;-43
2021/12/25 00:56:43;;;;;;;0.60;0.40;;;23.60;35.00;;;;;;5044765;28;20654;-43
2021/12/25 00:59:09;;;;;;;0.80;0.43;;;23.60;35.00;;;;;;5044099;28;20104;-47
2021/12/25 01:01:35;;;;;;;0.65;0.40;;;23.50;35.10;;;;;;5044243;28;20033;-42
2021/12/25 01:04:01;;;;;;;1.15;0.50;;;23.50;35.10;;;;;;5034802;28;20593;-43
2021/12/25 01:06:27;;;;;;;1.05;0.50;;;23.50;35.10;;;;;;5004579;28;20029;-43
2021/12/25 01:08:53;;;;;;;0.68;0.30;;;23.50;35.10;;;;;;5004726;28;20072;-43
2021/12/25 01:11:19;;;;;;;1.02;0.40;;;23.50;35.20;;;;;;5005064;28;20735;-43
2021/12/25 01:13:52;;;;;;;0.95;0.47;;;23.50;35.20;;;;;;5004907;28;20037;-42
2021/12/25 01:17:05;;;;;;;0.88;0.35;;;23.50;35.20;;;;;;5004534;28;20080;-43
2021/12/25 01:32:53;;;;;;;0.60;0.30;;;23.40;35.00;;;;;;5004949;28;20033;-42
2021/12/25 01:40:52;;;;;;;0.77;0.30;;;23.40;35.10;;;;;;5010565;28;20048;-42
2021/12/25 01:48:47;;;;;;;0.63;0.30;;;23.30;35.00;;;;;;5004703;28;20084;-42
2021/12/25 01:51:13;;;;;;;0.40;0.30;;;23.30;35.00;;;;;;5035418;28;20587;-43
2021/12/25 01:53:38;;;;;;;0.82;0.30;;;23.30;35.00;;;;;;5044008;28;20155;-43
2021/12/25 01:56:05;;;;;;;0.60;0.30;;;23.30;35.10;;;;;;5043887;28;20056;-43
2021/12/25 01:58:33;;;;;;;0.80;0.30;;;23.30;35.10;;;;;;5044310;28;20052;-42
2021/12/25 02:01:00;;;;;;;0.90;0.32;;;23.30;35.10;;;;;;5046196;28;20045;-42
2021/12/25 02:03:30;;;;;;;0.50;0.30;;;23.30;35.10;;;;;;5047221;28;20029;-43
2021/12/25 02:05:57;;;;;;;1.10;0.30;;;23.30;35.10;;;;;;5009793;28;20592;-43
2021/12/25 02:08:23;;;;;;;0.55;0.30;;;23.30;35.10;;;;;;5007820;28;20072;-43
2021/12/25 02:10:49;;;;;;;0.65;0.40;;;23.30;35.10;;;;;;5008734;28;20402;-43
2021/12/25 02:13:16;;;;;;;0.73;0.30;;;23.30;35.10;;;;;;5007793;28;20030;-43
2021/12/25 02:15:45;;;;;;;0.30;0.20;;;23.30;35.10;;;;;;5008511;28;20030;-43
2021/12/25 02:20:53;;;;;;;0.88;0.32;;;23.30;35.10;;;;;;5007872;28;20104;-43
2021/12/25 02:23:22;;;;;;;0.73;0.35;;;23.30;35.10;;;;;;5008085;28;20034;-42
2021/12/25 02:25:51;;;;;;;0.60;0.30;;;23.30;35.10;;;;;;5007596;28;20021;-43
2021/12/25 02:28:17;;;;;;;0.40;0.20;;;23.20;35.10;;;;;;5007031;28;20022;-42
2021/12/25 02:30:45;;;;;;;0.70;0.30;;;23.20;35.00;;;;;;5007936;28;20132;-42
2021/12/25 02:33:12;;;;;;;0.77;0.35;;;23.20;35.10;;;;;;5007433;28;20637;-43
2021/12/25 02:35:38;;;;;;;0.90;0.30;;;23.20;35.00;;;;;;5007486;28;20203;-43
2021/12/25 02:38:05;;;;;;;0.43;0.30;;;23.20;35.10;;;;;;5007486;28;20490;-43
2021/12/25 02:40:30;;;;;;;0.90;0.38;;;23.20;35.10;;;;;;5007834;28;20073;-42
2021/12/25 02:42:56;;;;;;;1.02;0.45;;;23.20;35.10;;;;;;5007252;28;20506;-43
2021/12/25 02:45:23;;;;;;;0.80;0.30;;;23.20;35.10;;;;;;5007215;28;20120;-43
2021/12/25 02:47:52;;;;;;;0.60;0.30;;;23.20;35.10;;;;;;5007729;28;20486;-43
2021/12/25 02:50:29;;;;;;;0.70;0.30;;;23.20;35.10;;;;;;5023525;28;20048;-43
2021/12/25 02:52:57;;;;;;;0.52;0.30;;;23.10;35.30;;;;;;5046833;28;20025;-43
2021/12/25 02:55:23;;;;;;;0.52;0.30;;;23.20;35.20;;;;;;5047046;28;20147;-43
2021/12/25 02:57:51;;;;;;;0.95;0.43;;;23.10;35.20;;;;;;5046765;28;20025;-43
2021/12/25 03:00:28;;;;;;;0.32;0.17;;;23.10;35.30;;;;;;5047079;28;20055;-42
2021/12/25 03:02:55;;;;;;;1.00;0.50;;;23.10;35.20;;;;;;5046539;28;20189;-43
2021/12/25 03:05:21;;;;;;;0.70;0.30;;;23.10;35.10;;;;;;5020763;28;20116;-42
2021/12/25 03:07:47;;;;;;;0.35;0.20;;;23.10;35.20;;;;;;5007519;28;20097;-42
2021/12/25 03:10:16;;;;;;;1.73;0.40;;;23.10;35.10;;;;;;5007754;28;20057;-43
2021/12/25 03:13:05;;;;;;;0.93;0.30;;;23.10;35.10;;;;;;5006780;28;20101;-43
2021/12/25 03:15:45;;;;;;;1.02;0.30;;;23.10;35.10;;;;;;5006043;28;20026;-42
2021/12/25 03:18:14;;;;;;;0.30;0.13;;;23.10;35.20;;;;;;5007132;28;20022;-42
2021/12/25 03:20:44;;;;;;;0.60;0.40;;;23.10;35.20;;;;;;5006997;28;20044;-43
2021/12/25 03:23:16;;;;;;;0.50;0.30;;;23.10;35.10;;;;;;5006037;28;20123;-43
2021/12/25 03:25:43;;;;;;;0.50;0.20;;;23.10;35.20;;;;;;5007172;28;20026;-42
2021/12/25 03:28:09;;;;;;;0.88;0.43;;;23.10;35.20;;;;;;5006677;28;20037;-43
2021/12/25 03:30:38;;;;;;;0.35;0.20;;;23.10;35.20;;;;;;5006466;28;20535;-42
2021/12/25 03:33:13;;;;;;;0.95;0.30;;;23.00;35.10;;;;;;5006503;28;20026;-43
2021/12/25 03:35:39;;;;;;;2.03;0.47;;;23.10;35.20;;;;;;5006183;28;20041;-43
2021/12/25 03:38:08;;;;;;;0.50;0.20;;;23.10;35.20;;;;;;5006523;28;20085;-42
2021/12/25 03:40:34;;;;;;;0.70;0.40;;;23.10;35.20;;;;;;5006090;28;20022;-43
2021/12/25 03:43:00;;;;;;;0.20;0.20;;;23.00;35.10;;;;;;5005947;28;20695;-43
2021/12/25 03:45:30;;;;;;;1.85;0.20;;;23.00;35.10;;;;;;5006249;28;20042;-43
2021/12/25 03:48:10;;;;;;;1.70;0.40;;;23.00;35.10;;;;;;5024410;28;20781;-43
2021/12/25 03:53:37;;;;;;;0.32;0.28;;;23.00;35.10;;;;;;5045720;28;20025;-43
2021/12/25 03:58:49;;;;;;;2.38;0.20;;;23.10;35.20;;;;;;5045793;28;20268;-43
2021/12/25 04:04:05;;;;;;;0.40;0.25;;;23.10;35.20;;;;;;5045333;28;20072;-43
2021/12/25 04:06:32;;;;;;;0.55;0.15;;;23.00;35.20;;;;;;5006527;28;20482;-42
2021/12/25 04:09:00;;;;;;;0.40;0.20;;;23.00;35.10;;;;;;5006454;28;20026;-42
2021/12/25 04:11:29;;;;;;;0.75;0.30;;;23.00;35.10;;;;;;5006844;28;20033;-43
2021/12/25 04:13:55;;;;;;;0.50;0.30;;;23.00;35.20;;;;;;5005742;28;20030;-43
2021/12/25 04:16:22;;;;;;;0.65;0.20;;;23.00;35.20;;;;;;5005456;28;20087;-43
2021/12/25 04:18:47;;;;;;;0.80;0.30;;;23.00;35.20;;;;;;5005539;28;20037;-43
2021/12/25 04:21:13;;;;;;;2.15;0.55;;;23.00;35.20;;;;;;5006034;28;20042;-43
2021/12/25 04:23:41;;;;;;;1.10;0.20;;;23.00;35.20;;;;;;5005047;28;20042;-42
2021/12/25 04:26:08;;;;;;;0.65;0.20;;;23.00;35.20;;;;;;5006106;28;20105;-43
2021/12/25 05:01:42;;;;;;;0.73;0.20;;;23.00;35.20;;;;;;5029267;28;20709;-43
2021/12/25 05:04:13;;;;;;;0.20;0.20;;;22.90;35.20;;;;;;5043233;28;20074;-42
2021/12/25 05:06:39;;;;;;;0.65;0.20;;;22.90;35.30;;;;;;5005437;28;20029;-46
2021/12/25 05:09:05;;;;;;;1.08;0.30;;;22.90;35.30;;;;;;5004917;28;20453;-45
2021/12/25 05:11:31;;;;;;;0.40;0.20;;;22.90;35.30;;;;;;5004649;28;20077;-45
2021/12/25 05:13:57;;;;;;;0.50;0.20;;;22.90;35.30;;;;;;5003659;28;20036;-45
2021/12/25 05:16:23;;;;;;;0.73;0.30;;;22.90;35.30;;;;;;5004469;28;20449;-45
2021/12/25 05:18:50;;;;;;;0.30;0.20;;;22.90;35.30;;;;;;5003734;28;20030;-45
2021/12/25 05:21:18;;;;;;;0.75;0.38;;;22.90;35.30;;;;;;5004777;28;20112;-45
2021/12/25 05:23:44;;;;;;;0.43;0.20;;;22.90;35.30;;;;;;5003219;28;20681;-45
2021/12/25 05:26:10;;;;;;;0.55;0.25;;;22.80;35.30;;;;;;5004616;28;20118;-45
2021/12/25 05:28:45;;;;;;;0.75;0.22;;;22.80;35.20;;;;;;5003968;28;20100;-45
2021/12/25 05:31:15;;;;;;;0.77;0.30;;;22.80;35.30;;;;;;5004516;28;20490;-45
2021/12/25 05:33:42;;;;;;;0.68;0.20;;;22.80;35.30;;;;;;5004952;28;20026;-45
2021/12/25 05:36:08;;;;;;;0.98;0.30;;;22.80;35.20;;;;;;5003991;28;20038;-45
2021/12/25 05:38:35;;;;;;;1.08;0.40;;;22.80;35.20;;;;;;5004823;28;20029;-45
2021/12/25 05:41:01;;;;;;;1.17;0.30;;;22.80;35.20;;;;;;5005075;28;20662;-45
2021/12/25 05:43:27;;;;;;;0.22;0.13;;;22.80;35.20;;;;;;5003840;28;20453;-45
2021/12/25 05:45:53;;;;;;;1.00;0.20;;;22.80;35.20;;;;;;5004823;28;20038;-45
2021/12/25 05:48:20;;;;;;;0.55;0.20;;;22.80;35.20;;;;;;5012752;28;20033;-45
2021/12/25 05:50:46;;;;;;;0.60;0.30;;;22.80;35.30;;;;;;5029879;28;20044;-45
2021/12/25 05:53:11;;;;;;;0.38;0.20;;;22.80;35.30;;;;;;5042371;28;20708;-45
2021/12/25 05:55:37;;;;;;;0.43;0.20;;;22.80;35.30;;;;;;5043465;28;20040;-45
2021/12/25 05:58:04;;;;;;;1.23;0.30;;;22.80;35.30;;;;;;5043771;28;20036;-45
2021/12/25 06:00:31;;;;;;;0.63;0.30;;;22.80;35.20;;;;;;5043801;28;20033;-45
2021/12/25 06:02:58;;;;;;;0.55;0.30;;;22.80;35.20;;;;;;5044141;28;20037;-45
2021/12/25 06:05:24;;;;;;;0.50;0.25;;;22.80;35.20;;;;;;5022721;28;20045;-45
2021/12/25 06:07:51;;;;;;;0.82;0.20;;;22.80;35.30;;;;;;5003406;28;20034;-45
2021/12/25 06:10:16;;;;;;;0.73;0.30;;;22.70;35.30;;;;;;5003637;28;20041;-45
2021/12/25 06:12:44;;;;;;;0.82;0.25;;;22.70;35.40;;;;;;5002750;28;20371;-45
2021/12/25 06:15:12;;;;;;;1.13;0.30;;;22.70;35.40;;;;;;5002103;28;20030;-45
2021/12/25 06:17:38;;;;;;;0.68;0.30;;;22.80;35.40;;;;;;5004278;28;20053;-45
2021/12/25 06:20:05;;;;;;;0.45;0.30;;;22.80;35.50;;;;;;5004211;28;20022;-45
2021/12/25 06:22:31;;;;;;;0.32;0.20;;;22.80;35.60;;;;;;5003890;28;20117;-45
2021/12/25 06:24:57;;;;;;;0.73;0.20;;;22.80;35.60;;;;;;5003098;28;20030;-45
2021/12/25 06:27:23;;;;;;;1.10;0.50;;;22.70;35.70;;;;;;5004615;28;20026;-45
2021/12/25 06:29:50;;;;;;;1.02;0.22;;;22.80;35.70;;;;;;5004311;28;20030;-46
2021/12/25 06:32:16;;;;;;;1.35;0.20;;;22.80;35.90;;;;;;5004671;28;20022;-45
2021/12/25 06:34:42;;;;;;;0.35;0.20;;;22.80;35.80;;;;;;5002841;28;20026;-45
2021/12/25 06:37:08;;;;;;;0.70;0.20;;;22.90;35.80;;;;;;5003500;28;20085;-46
2021/12/25 06:39:34;;;;;;;0.45;0.20;;;22.90;35.90;;;;;;5004054;28;20220;-45
2021/12/25 06:42:01;;;;;;;0.85;0.30;;;22.90;35.90;;;;;;5003805;28;20030;-45
2021/12/25 06:44:27;;;;;;;1.45;0.40;;;23.00;35.90;;;;;;5002075;28;20469;-45
2021/12/25 06:46:55;;;;;;;1.50;0.40;;;23.10;35.90;;;;;;5011974;28;20022;-45
2021/12/25 06:49:21;;;;;;;2.78;0.40;;;23.10;35.80;;;;;;5016678;28;20121;-45
2021/12/25 06:51:47;;;;;;;1.35;0.30;;;23.20;35.80;;;;;;5019434;28;20112;-43
2021/12/25 06:54:13;;;;;;;0.73;0.30;;;23.30;35.80;;;;;;5013140;28;20198;-43
2021/12/25 06:56:39;;;;;;;1.00;0.30;;;23.30;35.70;;;;;;5015946;28;20550;-43
2021/12/25 06:59:05;;;;;;;1.10;0.50;;;23.40;35.60;;;;;;5017539;28;20025;-42
2021/12/25 07:01:31;;;;;;;0.30;0.20;;;23.50;35.70;;;;;;5020505;28;20033;-42
2021/12/25 07:03:57;;;;;;;1.38;0.40;;;23.50;35.60;;;;;;5024275;28;20478;-46
2021/12/25 07:06:22;;;;;;;1.30;0.40;;;23.60;35.50;;;;;;5018755;28;20057;-46
2021/12/25 07:08:49;;;;;;;0.85;0.30;;;23.60;35.50;;;;;;4999597;28;20033;-46
2021/12/25 07:11:16;;;;;;;1.00;0.30;;;23.70;35.60;;;;;;5002193;28;20022;-44
2021/12/25 07:13:44;;;;;;;0.70;0.30;;;23.70;35.60;;;;;;5025230;28;20030;-46
2021/12/25 07:16:10;;;;;;;1.70;0.40;;;23.80;35.60;;;;;;5023947;28;20041;-45
2021/12/25 07:18:36;;;;;;;1.40;0.52;;;23.80;35.60;;;;;;5023406;28;20033;-46
2021/12/25 07:21:06;;;;;;;1.25;0.25;;;23.90;35.80;;;;;;5023831;28;20040;-45
2021/12/25 07:23:33;;;;;;;1.30;0.50;;;24.00;35.90;;;;;;5021339;28;20024;-45
2021/12/25 07:25:59;;;;;;;0.82;0.40;;;24.00;36.00;;;;;;5025032;28;20022;-45
2021/12/25 07:28:28;;;;;;;1.00;0.30;;;24.00;36.10;;;;;;5025867;28;20455;-45
2021/12/25 07:30:56;;;;;;;3.65;0.77;;;24.10;36.10;;;;;;5024736;28;20025;-46
2021/12/25 07:33:22;;;;;;;2.53;0.60;;;24.20;36.10;;;;;;5025679;28;20048;-46
2021/12/25 07:35:48;;;;;;;3.00;0.75;;;24.30;36.20;;;;;;5021110;28;20030;-46
2021/12/25 07:38:15;;;;;;;2.28;0.57;;;24.30;36.10;;;;;;5014730;28;20435;-46
2021/12/25 07:40:41;;;;;;;1.90;0.60;;;24.30;36.10;;;;;;5021651;28;20597;-44
2021/12/25 07:43:07;;;;;;;2.03;0.45;;;24.40;36.00;;;;;;5025284;28;20029;-46
2021/12/25 07:45:33;;;;;;;1.52;0.57;;;24.40;35.90;;;;;;5025323;28;20029;-45
2021/12/25 07:48:01;;;;;;;3.67;0.88;;;24.50;35.90;;;;;;5025677;28;20033;-45
2021/12/25 07:50:31;;;;;;;2.30;0.65;;;24.50;35.80;;;;;;5018137;28;20080;-46
2021/12/25 07:52:58;;;;;;;1.08;0.50;;;24.60;35.70;;;;;;5005330;28;20034;-45
2021/12/25 07:55:25;;;;;;;1.75;0.57;;;24.60;35.60;;;;;;5008702;28;20037;-44
2021/12/25 07:57:50;;;;;;;3.95;0.60;;;24.70;35.60;;;;;;5024609;28;20538;-46
2021/12/25 08:00:18;;;;;;;2.63;0.68;;;24.70;35.50;;;;;;5025501;28;20026;-46
2021/12/25 08:02:45;;;;;;;3.13;0.70;;;24.70;35.60;;;;;;5025447;28;20041;-45
2021/12/25 08:05:11;;;;;;;2.45;0.60;;;24.70;35.30;;;;;;5021024;28;20646;-44
2021/12/25 08:07:38;;;;;;;2.45;0.55;;;24.80;35.20;;;;;;5016318;28;20029;-46
2021/12/25 08:10:16;;;;;;;2.05;0.50;;;24.80;35.10;;;;;;5024926;28;20445;-47
2021/12/25 08:12:54;;;;;;;2.83;0.70;;;24.80;35.10;;;;;;5025058;28;20025;-47
2021/12/25 08:15:27;;;;;;;2.42;0.52;;;24.80;35.00;;;;;;5025195;28;20322;-47
2021/12/25 08:17:54;;;;;;;1.70;0.60;;;24.90;35.00;;;;;;5022733;28;20083;-49
2021/12/25 08:20:20;;;;;;;1.23;0.60;;;24.80;34.90;;;;;;5023900;28;20032;-49
2021/12/25 08:22:46;;;;;;;12.68;2.25;;;24.90;34.90;;;;;;5023103;28;20678;-45
2021/12/25 08:25:13;;;;;;;6.78;2.03;;;24.90;34.90;;;;;;5023162;28;20052;-46
2021/12/25 08:27:41;;;;;;;8.10;2.20;;;24.90;34.80;;;;;;5020434;28;20033;-47
2021/12/25 08:30:11;;;;;;;9.77;2.00;;;24.90;34.80;;;;;;5021884;28;20029;-46
2021/12/25 08:32:41;;;;;;;10.57;2.38;;;25.00;34.90;;;;;;5023042;28;20029;-43
2021/12/25 08:35:09;;;;;;;8.48;2.05;;;25.00;35.20;;;;;;5019831;28;20060;-44
2021/12/25 08:37:35;;;;;;;5.75;1.35;;;25.00;35.20;;;;;;5005412;28;20546;-44
2021/12/25 08:40:02;;;;;;;5.30;1.58;;;25.00;35.20;;;;;;5004903;28;20114;-44
2021/12/25 08:42:28;;;;;;;5.45;1.30;;;25.00;35.20;;;;;;5004883;28;20030;-44
2021/12/25 08:47:27;;;;;;;5.40;1.20;;;25.00;35.20;;;;;;5005318;28;20044;-44
2021/12/25 08:49:54;;;;;;;4.70;1.25;;;25.00;35.10;;;;;;5008713;28;20551;-44
2021/12/25 08:52:21;;;;;;;3.42;0.95;;;25.10;35.10;;;;;;5019977;28;20236;-44
2021/12/25 08:54:48;;;;;;;3.03;1.00;;;25.10;35.00;;;;;;5002222;28;20014;-43
2021/12/25 08:57:18;;;;;;;2.75;0.90;;;25.10;35.00;;;;;;5006167;28;20128;-43
2021/12/25 08:59:45;;;;;;;3.10;1.23;;;25.10;35.00;;;;;;5004809;28;20557;-44
2021/12/25 09:02:14;;;;;;;5.70;1.40;;;25.10;35.00;;;;;;5004953;28;20474;-44
2021/12/25 09:04:43;;;;;;;2.33;0.70;;;25.10;35.10;;;;;;5004763;28;20022;-43
2021/12/25 09:07:08;;;;;;;4.72;1.15;;;25.10;35.40;;;;;;5005683;28;20033;-43
2021/12/25 09:09:35;;;;;;;4.07;1.10;;;25.10;35.20;;;;;;5004476;28;20029;-43
2021/12/25 09:12:02;;;;;;;3.28;1.00;;;25.10;35.20;;;;;;5004684;28;20026;-44
2021/12/25 09:14:28;;;;;;;3.10;0.90;;;25.20;35.20;;;;;;5003759;28;20022;-43
2021/12/25 09:16:53;;;;;;;4.93;1.25;;;25.20;35.20;;;;;;5004299;28;20091;-44
2021/12/25 09:19:19;;;;;;;3.08;0.80;;;25.20;35.30;;;;;;5004247;28;20425;-44
2021/12/25 09:21:45;;;;;;;2.38;1.08;;;25.20;35.20;;;;;;5002951;28;20038;-43
2021/12/25 09:24:10;;;;;;;4.00;1.10;;;25.20;35.30;;;;;;5003892;28;20109;-43
2021/12/25 09:26:36;;;;;;;2.88;0.93;;;25.20;35.40;;;;;;5003525;28;20497;-44
2021/12/25 09:29:03;;;;;;;3.85;1.15;;;25.20;35.60;;;;;;5012149;28;20037;-44
2021/12/25 09:31:30;;;;;;;4.78;1.02;;;25.20;36.00;;;;;;5003947;28;20498;-45
2021/12/25 09:33:56;;;;;;;5.82;1.20;;;25.30;36.40;;;;;;5000372;28;20068;-44
2021/12/25 09:36:22;;;;;;;3.30;0.95;;;25.30;36.50;;;;;;5012636;28;20423;-44
2021/12/25 09:38:49;;;;;;;2.85;1.00;;;25.30;36.20;;;;;;5022985;28;20031;-44
2021/12/25 09:41:16;;;;;;;3.60;1.10;;;25.30;36.10;;;;;;5005492;28;20230;-44
2021/12/25 09:43:44;;;;;;;2.55;0.70;;;25.30;36.00;;;;;;5003021;28;20034;-44
2021/12/25 09:46:10;;;;;;;2.55;0.70;;;25.30;36.40;;;;;;5004405;28;20055;-44
2021/12/25 09:48:36;;;;;;;3.47;0.80;;;25.30;35.60;;;;;;5007315;28;20026;-43
2021/12/25 09:51:03;;;;;;;2.58;0.80;;;25.30;35.50;;;;;;5015671;28;20037;-44
2021/12/25 09:53:29;;;;;;;2.72;0.70;;;25.30;35.40;;;;;;5013593;28;20025;-43
2021/12/25 09:55:55;;;;;;;1.90;0.70;;;25.40;35.30;;;;;;5021729;28;20048;-44
2021/12/25 09:58:22;;;;;;;2.17;1.00;;;25.30;35.20;;;;;;5019446;28;20045;-44
2021/12/25 10:00:54;;;;;;;3.83;1.00;;;25.30;35.10;;;;;;5022051;28;20576;-47
2021/12/25 10:03:20;;;;;;;2.30;0.80;;;25.40;35.00;;;;;;5018010;28;20042;-47
2021/12/25 10:05:48;;;;;;;2.72;0.98;;;25.40;34.90;;;;;;5007126;28;20041;-48
2021/12/25 10:08:25;;;;;;;1.38;0.60;;;25.40;34.80;;;;;;5003314;28;20101;-47
2021/12/25 10:11:01;;;;;;;2.95;0.90;;;25.30;34.70;;;;;;5004075;28;20693;-47
2021/12/25 10:13:32;;;;;;;2.92;0.70;;;25.40;34.80;;;;;;5003666;28;20046;-47
2021/12/25 10:16:16;;;;;;;2.70;0.80;;;25.40;34.90;;;;;;5002921;28;20312;-48
2021/12/25 10:18:42;;;;;;;2.35;0.77;;;25.40;34.90;;;;;;5003308;28;20052;-48
2021/12/25 10:21:26;;;;;;;2.58;0.88;;;25.40;35.00;;;;;;5003749;28;20033;-48
2021/12/25 10:24:07;;;;;;;2.38;0.88;;;25.50;35.00;;;;;;5006485;28;20109;-47
2021/12/25 10:26:34;;;;;;;2.65;0.93;;;25.40;35.10;;;;;;5007796;28;20026;-47
2021/12/25 10:29:27;;;;;;;2.42;0.80;;;25.40;35.10;;;;;;5017732;28;20030;-50
2021/12/25 10:32:02;;;;;;;3.03;1.10;;;25.40;35.10;;;;;;5027734;28;20025;-48
2021/12/25 10:34:31;;;;;;;2.95;1.10;;;25.40;35.10;;;;;;5027038;28;20037;-48
2021/12/25 10:37:12;;;;;;;2.50;0.98;;;25.40;35.20;;;;;;5008943;28;20049;-48
2021/12/25 10:39:39;;;;;;;1.90;0.68;;;25.40;35.20;;;;;;5007126;28;20030;-47
2021/12/25 10:42:12;;;;;;;2.33;0.88;;;25.40;35.20;;;;;;5006739;28;20044;-49
2021/12/25 10:44:51;;;;;;;3.95;0.90;;;25.40;35.50;;;;;;5007624;28;20034;-46
2021/12/25 10:47:23;;;;;;;3.90;1.00;;;25.40;35.60;;;;;;5007123;28;20030;-48
2021/12/25 10:49:58;;;;;;;3.60;1.08;;;25.40;35.40;;;;;;5014281;28;20114;-47
2021/12/25 10:52:27;;;;;;;3.92;1.15;;;25.40;35.40;;;;;;5005822;28;20064;-48
2021/12/25 10:55:03;;;;;;;2.05;0.82;;;25.40;35.40;;;;;;5006727;28;20025;-48
2021/12/25 10:57:39;;;;;;;3.70;1.25;;;25.40;35.60;;;;;;5005549;28;20164;-49
2021/12/25 11:00:34;;;;;;;2.05;0.88;;;25.40;35.80;;;;;;5014603;28;20022;-47
2021/12/25 11:03:08;;;;;;;2.75;1.08;;;25.30;35.80;;;;;;5016767;28;20034;-47
2021/12/25 11:05:36;;;;;;;2.95;0.75;;;25.30;35.80;;;;;;5006358;28;20108;-47
2021/12/25 11:08:10;;;;;;;5.22;1.20;;;25.30;36.20;;;;;;5006449;28;20486;-47
2021/12/25 11:10:48;;;;;;;3.70;0.90;;;25.30;36.20;;;;;;5006775;28;20079;-48
2021/12/25 11:13:16;;;;;;;2.85;1.17;;;25.30;36.40;;;;;;5006715;28;20054;-47
2021/12/25 11:15:42;;;;;;;1.95;0.65;;;25.30;36.40;;;;;;5006247;28;20478;-47
2021/12/25 11:18:09;;;;;;;1.95;0.70;;;25.20;36.60;;;;;;5005323;28;20052;-47
2021/12/25 11:20:38;;;;;;;2.53;0.88;;;25.20;36.90;;;;;;5017100;28;20040;-47
2021/12/25 11:23:08;;;;;;;2.22;0.90;;;25.20;37.00;;;;;;5006318;28;20022;-48
2021/12/25 11:25:36;;;;;;;2.53;0.90;;;25.30;37.00;;;;;;5005943;28;20525;-48
2021/12/25 11:28:09;;;;;;;2.35;0.70;;;25.20;37.60;;;;;;5009026;28;20033;-47
2021/12/25 11:30:38;;;;;;;2.10;0.75;;;25.20;37.80;;;;;;5025692;28;20441;-48
2021/12/25 11:33:03;;;;;;;3.15;0.82;;;25.20;38.30;;;;;;5024700;28;20025;-47
2021/12/25 11:35:33;;;;;;;1.73;0.80;;;25.20;38.20;;;;;;5020767;28;20727;-46
2021/12/25 11:38:01;;;;;;;2.40;0.70;;;25.20;38.10;;;;;;5003891;28;20026;-47
2021/12/25 11:40:29;;;;;;;1.73;0.80;;;25.20;38.00;;;;;;5016295;28;20119;-47
2021/12/25 11:42:59;;;;;;;1.83;0.75;;;25.20;38.00;;;;;;5015909;28;20034;-48
2021/12/25 11:45:29;;;;;;;3.22;1.00;;;25.20;37.80;;;;;;5013647;28;20030;-48
2021/12/25 11:48:10;;;;;;;2.30;0.80;;;25.20;37.80;;;;;;5011380;28;20057;-48
2021/12/25 11:50:41;;;;;;;1.92;0.70;;;25.20;37.80;;;;;;5022867;28;20034;-46
2021/12/25 11:53:14;;;;;;;1.65;0.70;;;25.20;37.80;;;;;;5005734;28;20023;-47
2021/12/25 11:58:36;;;;;;;2.45;0.80;;;25.20;37.70;;;;;;5023134;28;20032;-48
2021/12/25 12:01:17;;;;;;;2.35;0.90;;;25.20;37.70;;;;;;5020595;28;20049;-45
2021/12/25 12:03:52;;;;;;;3.05;0.80;;;25.10;37.60;;;;;;5008780;28;20444;-46
2021/12/25 12:06:19;;;;;;;2.83;0.80;;;25.10;37.60;;;;;;5013664;28;20064;-47
2021/12/25 12:08:54;;;;;;;2.72;1.05;;;25.20;37.50;;;;;;5022167;28;20052;-45
2021/12/25 12:11:25;;;;;;;2.30;1.10;;;25.10;37.50;;;;;;5019049;28;20581;-45
2021/12/25 12:14:15;;;;;;;2.20;0.90;;;25.10;37.50;;;;;;5014437;28;20037;-45
2021/12/25 12:16:46;;;;;;;1.90;0.70;;;25.00;37.50;;;;;;5011923;28;20041;-45
2021/12/25 12:19:40;;;;;;;2.58;0.85;;;25.00;37.40;;;;;;5022772;28;20604;-46
2021/12/25 12:23:20;;;;;;;1.98;0.90;;;25.00;37.30;;;;;;5007266;28;20045;-45
2021/12/25 12:27:32;;;;;;;2.28;0.70;;;25.10;37.20;;;;;;5005293;28;20509;-45
2021/12/25 12:29:58;;;;;;;2.70;0.90;;;25.00;37.20;;;;;;5004937;28;20469;-46
2021/12/25 12:32:36;;;;;;;2.10;0.80;;;25.00;37.10;;;;;;5015269;28;20045;-45
2021/12/25 12:35:04;;;;;;;1.98;0.95;;;25.10;37.10;;;;;;5024558;28;20025;-45
2021/12/25 12:37:33;;;;;;;2.13;0.90;;;25.00;37.10;;;;;;5004858;28;20034;-45
2021/12/25 12:40:04;;;;;;;2.22;0.80;;;25.00;37.00;;;;;;5005377;28;20032;-45
2021/12/25 12:42:59;;;;;;;1.67;0.70;;;25.00;36.90;;;;;;5016171;28;20029;-46
2021/12/25 12:45:32;;;;;;;1.92;0.75;;;25.00;36.90;;;;;;5004220;28;20038;-46
2021/12/25 12:48:16;;;;;;;;;;;25.00;36.80;;;;;;5005712;28;20037;-45
2021/12/25 12:50:53;;;;;;;2.47;0.82;;;25.10;36.70;;;;;;5016909;28;19944;-46
2021/12/25 12:53:21;;;;;;;1.33;0.70;;;25.00;36.70;;;;;;5004163;28;20022;-45
2021/12/25 12:55:51;;;;;;;1.60;0.70;;;25.00;36.70;;;;;;5004901;28;20067;-45
2021/12/25 12:58:23;;;;;;;2.35;1.02;;;25.00;36.60;;;;;;5004866;28;20101;-45
2021/12/25 13:01:07;;;;;;;1.40;0.55;;;25.00;36.60;;;;;;5005134;28;20088;-45
2021/12/25 13:03:33;;;;;;;1.85;0.70;;;25.00;36.50;;;;;;5004002;28;20030;-45
2021/12/25 13:06:05;;;;;;;1.77;0.80;;;25.00;36.50;;;;;;5005049;28;20041;-46
2021/12/25 13:08:35;;;;;;;1.83;0.73;;;25.00;36.50;;;;;;5012174;28;20436;-45
2021/12/25 13:11:16;;;;;;;1.55;0.70;;;25.00;36.40;;;;;;5024506;28;20261;-45
2021/12/25 13:13:54;;;;;;;1.40;0.70;;;25.00;36.40;;;;;;5006539;28;20018;-45
2021/12/25 13:16:24;;;;;;;3.47;0.80;;;25.00;36.30;;;;;;5004577;28;20438;-46
2021/12/25 13:18:54;;;;;;;1.85;0.95;;;24.90;36.30;;;;;;5004570;28;20125;-45
2021/12/25 13:21:25;;;;;;;1.77;1.00;;;25.00;36.20;;;;;;5003738;28;20117;-45
2021/12/25 13:24:07;;;;;;;1.48;0.80;;;25.00;36.20;;;;;;5010598;28;20110;-45
2021/12/25 13:26:37;;;;;;;;;;;24.90;36.20;;;;;;5020271;28;20036;-45
2021/12/25 13:29:08;;;;;;;1.00;0.60;;;24.90;36.20;;;;;;5022756;28;19963;-45
2021/12/25 13:31:36;;;;;;;1.58;0.80;;;24.90;36.20;;;;;;5020911;28;20036;-45
2021/12/25 13:34:15;;;;;;;1.83;0.95;;;24.90;36.20;;;;;;5011073;28;20050;-45
2021/12/25 13:36:54;;;;;;;1.45;0.70;;;24.90;36.20;;;;;;5018350;28;20491;-45
2021/12/25 13:39:26;;;;;;;1.75;0.80;;;24.90;36.20;;;;;;5021361;28;20037;-45
2021/12/25 13:41:53;;;;;;;;;;;24.90;36.10;;;;;;5019619;28;20780;-45
2021/12/25 13:44:25;;;;;;;2.05;0.77;;;24.90;36.20;;;;;;5002140;28;19905;-45
2021/12/25 13:47:00;;;;;;;1.38;0.85;;;24.80;36.10;;;;;;5004250;28;20042;-45
2021/12/25 13:49:25;;;;;;;2.97;1.20;;;24.80;36.10;;;;;;5005693;28;20033;-45
2021/12/25 13:51:52;;;;;;;1.65;0.90;;;24.90;36.20;;;;;;5015493;28;20088;-45
2021/12/25 13:54:19;;;;;;;1.75;0.75;;;24.90;36.20;;;;;;5010688;28;20056;-45
2021/12/25 13:56:49;;;;;;;2.13;1.00;;;24.90;36.20;;;;;;5009377;28;20044;-45
2021/12/25 13:59:15;;;;;;;1.52;0.77;;;24.90;36.20;;;;;;5027877;28;20029;-45
2021/12/25 14:01:41;;;;;;;1.67;0.85;;;24.80;36.10;;;;;;5027466;28;20045;-45
2021/12/25 14:04:12;;;;;;;1.45;0.80;;;24.80;36.00;;;;;;5027401;28;20025;-45
2021/12/25 14:06:38;;;;;;;2.40;1.02;;;24.80;36.00;;;;;;5015819;28;20037;-45
2021/12/25 14:09:05;;;;;;;1.70;0.90;;;24.80;36.00;;;;;;5008005;28;20026;-45
2021/12/25 14:11:31;;;;;;;1.77;0.80;;;24.80;36.00;;;;;;5007792;28;20032;-45
2021/12/25 14:13:57;;;;;;;1.67;0.73;;;24.80;36.00;;;;;;5007294;28;20558;-45
2021/12/25 14:16:22;;;;;;;1.13;0.60;;;24.80;36.60;;;;;;5010044;28;20039;-44
2021/12/25 14:18:48;;;;;;;1.80;0.75;;;24.80;35.90;;;;;;5016638;28;20018;-46
2021/12/25 14:21:19;;;;;;;3.00;0.82;;;24.80;35.90;;;;;;5020424;28;20518;-45
2021/12/25 14:23:46;;;;;;;1.65;0.77;;;24.80;35.90;;;;;;5010082;28;20042;-45